sensor_id;sensor_type;location;lat;lon;timestamp;P1;durP1;ratioP1;P2;durP2;ratioP2
12597;SDS011;6364;53.590;9.956;2022-12-07T00:01:08;37.45;;;21.10;;
12597;SDS011;6364;53.590;9.956;2022-12-07T00:03:35;37.72;;;20.00;;
12597;SDS011;6364;53.590;9.956;2022-12-07T00:06:01;39.17;;;21.38;;
12597;SDS011;6364;53.590;9.956;2022-12-07T00:08:27;41.03;;;21.52;;
12597;SDS011;6364;53.590;9.956;2022-12-07T00:10:53;36.42;;;21.00;;
12597;SDS011;6364;53.590;9.956;2022-12-07T00:13:18;42.45;;;21.80;;
12597;SDS011;6364;53.590;9.956;2022-12-07T00:15:44;38.90;;;21.52;;
12597;SDS011;6364;53.590;9.956;2022-12-07T00:18:09;39.17;;;21.63;;
12597;SDS011;6364;53.590;9.956;2022-12-07T00:20:34;39.85;;;21.67;;
12597;SDS011;6364;53.590;9.956;2022-12-07T00:23:00;37.55;;;20.80;;
12597;SDS011;6364;53.590;9.956;2022-12-07T00:25:25;38.33;;;20.23;;
12597;SDS011;6364;53.590;9.956;2022-12-07T00:27:52;39.65;;;19.60;;
12597;SDS011;6364;53.590;9.956;2022-12-07T00:30:18;38.80;;;19.60;;
12597;SDS011;6364;53.590;9.956;2022-12-07T00:32:43;42.00;;;20.02;;
12597;SDS011;6364;53.590;9.956;2022-12-07T00:35:08;40.78;;;19.35;;
12597;SDS011;6364;53.590;9.956;2022-12-07T00:37:34;36.30;;;19.38;;
12597;SDS011;6364;53.590;9.956;2022-12-07T00:39:59;34.22;;;18.88;;
12597;SDS011;6364;53.590;9.956;2022-12-07T00:42:24;36.13;;;18.40;;
12597;SDS011;6364;53.590;9.956;2022-12-07T00:44:50;35.00;;;19.23;;
12597;SDS011;6364;53.590;9.956;2022-12-07T00:47:15;34.35;;;18.88;;
12597;SDS011;6364;53.590;9.956;2022-12-07T00:49:40;37.47;;;18.27;;
12597;SDS011;6364;53.590;9.956;2022-12-07T00:52:06;31.85;;;18.48;;
12597;SDS011;6364;53.590;9.956;2022-12-07T00:54:31;34.00;;;17.33;;
12597;SDS011;6364;53.590;9.956;2022-12-07T00:56:56;39.40;;;17.88;;
12597;SDS011;6364;53.590;9.956;2022-12-07T00:59:22;34.13;;;17.55;;
12597;SDS011;6364;53.590;9.956;2022-12-07T01:01:47;35.42;;;18.65;;
12597;SDS011;6364;53.590;9.956;2022-12-07T01:04:12;37.45;;;17.52;;
12597;SDS011;6364;53.590;9.956;2022-12-07T01:06:38;31.85;;;16.98;;
12597;SDS011;6364;53.590;9.956;2022-12-07T01:09:03;36.25;;;17.95;;
12597;SDS011;6364;53.590;9.956;2022-12-07T01:11:30;29.55;;;16.45;;
12597;SDS011;6364;53.590;9.956;2022-12-07T01:13:55;32.22;;;16.52;;
12597;SDS011;6364;53.590;9.956;2022-12-07T01:16:23;33.10;;;15.90;;
12597;SDS011;6364;53.590;9.956;2022-12-07T01:18:50;35.13;;;16.00;;
12597;SDS011;6364;53.590;9.956;2022-12-07T01:21:18;29.73;;;16.13;;
12597;SDS011;6364;53.590;9.956;2022-12-07T01:23:48;32.05;;;15.50;;
12597;SDS011;6364;53.590;9.956;2022-12-07T01:26:15;32.30;;;15.85;;
12597;SDS011;6364;53.590;9.956;2022-12-07T01:28:42;35.63;;;15.38;;
12597;SDS011;6364;53.590;9.956;2022-12-07T01:31:15;32.50;;;15.02;;
12597;SDS011;6364;53.590;9.956;2022-12-07T01:33:42;29.55;;;15.30;;
12597;SDS011;6364;53.590;9.956;2022-12-07T01:38:41;33.53;;;15.57;;
12597;SDS011;6364;53.590;9.956;2022-12-07T01:41:07;29.63;;;14.88;;
12597;SDS011;6364;53.590;9.956;2022-12-07T01:43:33;35.05;;;16.52;;
12597;SDS011;6364;53.590;9.956;2022-12-07T01:45:59;36.13;;;16.08;;
12597;SDS011;6364;53.590;9.956;2022-12-07T01:48:33;27.35;;;15.20;;
12597;SDS011;6364;53.590;9.956;2022-12-07T01:51:01;31.25;;;15.02;;
12597;SDS011;6364;53.590;9.956;2022-12-07T01:53:30;26.42;;;14.82;;
12597;SDS011;6364;53.590;9.956;2022-12-07T01:55:57;26.05;;;14.63;;
12597;SDS011;6364;53.590;9.956;2022-12-07T01:58:23;24.80;;;13.25;;
12597;SDS011;6364;53.590;9.956;2022-12-07T02:00:49;29.60;;;13.85;;
12597;SDS011;6364;53.590;9.956;2022-12-07T02:03:25;29.52;;;14.02;;
12597;SDS011;6364;53.590;9.956;2022-12-07T02:05:54;28.85;;;14.05;;
12597;SDS011;6364;53.590;9.956;2022-12-07T02:08:20;24.83;;;12.63;;
12597;SDS011;6364;53.590;9.956;2022-12-07T02:10:45;29.73;;;12.73;;
12597;SDS011;6364;53.590;9.956;2022-12-07T02:13:15;25.90;;;13.32;;
12597;SDS011;6364;53.590;9.956;2022-12-07T02:15:55;23.10;;;11.48;;
12597;SDS011;6364;53.590;9.956;2022-12-07T02:29:22;22.92;;;10.38;;
12597;SDS011;6364;53.590;9.956;2022-12-07T02:34:43;21.45;;;9.15;;
12597;SDS011;6364;53.590;9.956;2022-12-07T02:37:16;16.27;;;7.93;;
12597;SDS011;6364;53.590;9.956;2022-12-07T02:42:33;15.30;;;7.18;;
12597;SDS011;6364;53.590;9.956;2022-12-07T02:45:00;16.23;;;7.55;;
12597;SDS011;6364;53.590;9.956;2022-12-07T02:47:26;17.95;;;6.78;;
12597;SDS011;6364;53.590;9.956;2022-12-07T02:49:52;17.45;;;7.22;;
12597;SDS011;6364;53.590;9.956;2022-12-07T02:52:17;18.25;;;7.57;;
12597;SDS011;6364;53.590;9.956;2022-12-07T02:54:42;15.23;;;7.10;;
12597;SDS011;6364;53.590;9.956;2022-12-07T02:57:27;14.55;;;6.30;;
12597;SDS011;6364;53.590;9.956;2022-12-07T03:00:07;16.00;;;6.35;;
12597;SDS011;6364;53.590;9.956;2022-12-07T03:11:10;13.20;;;4.68;;
12597;SDS011;6364;53.590;9.956;2022-12-07T03:14:40;12.63;;;5.30;;
12597;SDS011;6364;53.590;9.956;2022-12-07T03:16:41;12.55;;;4.50;;
12597;SDS011;6364;53.590;9.956;2022-12-07T03:19:11;11.23;;;4.32;;
12597;SDS011;6364;53.590;9.956;2022-12-07T03:21:39;9.25;;;3.72;;
12597;SDS011;6364;53.590;9.956;2022-12-07T03:24:08;10.25;;;3.45;;
12597;SDS011;6364;53.590;9.956;2022-12-07T03:26:36;6.95;;;3.38;;
12597;SDS011;6364;53.590;9.956;2022-12-07T03:29:07;7.88;;;3.17;;
12597;SDS011;6364;53.590;9.956;2022-12-07T03:31:41;9.10;;;2.97;;
12597;SDS011;6364;53.590;9.956;2022-12-07T03:34:17;6.55;;;2.70;;
12597;SDS011;6364;53.590;9.956;2022-12-07T03:36:47;6.80;;;1.92;;
12597;SDS011;6364;53.590;9.956;2022-12-07T03:39:18;7.53;;;2.90;;
12597;SDS011;6364;53.590;9.956;2022-12-07T03:41:48;3.72;;;2.00;;
12597;SDS011;6364;53.590;9.956;2022-12-07T03:44:14;6.43;;;2.65;;
12597;SDS011;6364;53.590;9.956;2022-12-07T03:49:28;8.15;;;2.40;;
12597;SDS011;6364;53.590;9.956;2022-12-07T03:52:02;8.60;;;2.53;;
12597;SDS011;6364;53.590;9.956;2022-12-07T03:54:37;5.70;;;2.40;;
12597;SDS011;6364;53.590;9.956;2022-12-07T03:57:11;5.00;;;2.35;;
12597;SDS011;6364;53.590;9.956;2022-12-07T03:59:37;9.93;;;2.45;;
12597;SDS011;6364;53.590;9.956;2022-12-07T04:02:05;4.35;;;2.55;;
12597;SDS011;6364;53.590;9.956;2022-12-07T04:04:31;6.63;;;2.70;;
12597;SDS011;6364;53.590;9.956;2022-12-07T04:06:57;3.45;;;2.42;;
12597;SDS011;6364;53.590;9.956;2022-12-07T04:09:22;6.88;;;2.60;;
12597;SDS011;6364;53.590;9.956;2022-12-07T04:11:48;7.65;;;2.47;;
12597;SDS011;6364;53.590;9.956;2022-12-07T04:14:13;6.80;;;2.72;;
12597;SDS011;6364;53.590;9.956;2022-12-07T04:16:52;10.93;;;2.90;;
12597;SDS011;6364;53.590;9.956;2022-12-07T04:21:44;7.50;;;2.72;;
12597;SDS011;6364;53.590;9.956;2022-12-07T04:24:10;7.05;;;3.10;;
12597;SDS011;6364;53.590;9.956;2022-12-07T04:26:36;8.95;;;3.60;;
12597;SDS011;6364;53.590;9.956;2022-12-07T04:29:02;6.90;;;2.97;;
12597;SDS011;6364;53.590;9.956;2022-12-07T04:31:27;7.45;;;3.03;;
12597;SDS011;6364;53.590;9.956;2022-12-07T04:33:52;9.43;;;2.92;;
12597;SDS011;6364;53.590;9.956;2022-12-07T04:36:18;8.65;;;3.55;;
12597;SDS011;6364;53.590;9.956;2022-12-07T04:38:46;9.05;;;2.85;;
12597;SDS011;6364;53.590;9.956;2022-12-07T04:41:11;7.50;;;3.25;;
12597;SDS011;6364;53.590;9.956;2022-12-07T04:43:37;6.45;;;3.60;;
12597;SDS011;6364;53.590;9.956;2022-12-07T04:46:02;6.47;;;3.22;;
12597;SDS011;6364;53.590;9.956;2022-12-07T04:48:28;8.52;;;3.28;;
12597;SDS011;6364;53.590;9.956;2022-12-07T04:50:53;6.65;;;3.60;;
12597;SDS011;6364;53.590;9.956;2022-12-07T04:53:19;8.60;;;3.90;;
12597;SDS011;6364;53.590;9.956;2022-12-07T04:55:45;7.18;;;3.65;;
12597;SDS011;6364;53.590;9.956;2022-12-07T04:58:11;6.13;;;3.58;;
12597;SDS011;6364;53.590;9.956;2022-12-07T05:00:36;7.13;;;3.30;;
12597;SDS011;6364;53.590;9.956;2022-12-07T05:03:02;7.97;;;3.88;;
12597;SDS011;6364;53.590;9.956;2022-12-07T05:05:27;7.13;;;3.90;;
12597;SDS011;6364;53.590;9.956;2022-12-07T05:07:53;10.27;;;4.35;;
12597;SDS011;6364;53.590;9.956;2022-12-07T05:10:18;13.98;;;4.57;;
12597;SDS011;6364;53.590;9.956;2022-12-07T05:12:43;8.82;;;4.43;;
12597;SDS011;6364;53.590;9.956;2022-12-07T05:15:10;11.45;;;5.55;;
12597;SDS011;6364;53.590;9.956;2022-12-07T05:17:35;12.68;;;4.43;;
12597;SDS011;6364;53.590;9.956;2022-12-07T05:20:01;11.10;;;4.35;;
12597;SDS011;6364;53.590;9.956;2022-12-07T05:22:26;10.65;;;4.93;;
12597;SDS011;6364;53.590;9.956;2022-12-07T05:24:53;10.88;;;5.03;;
12597;SDS011;6364;53.590;9.956;2022-12-07T05:27:19;14.05;;;4.88;;
12597;SDS011;6364;53.590;9.956;2022-12-07T05:29:44;11.30;;;4.57;;
12597;SDS011;6364;53.590;9.956;2022-12-07T05:32:10;10.07;;;4.75;;
12597;SDS011;6364;53.590;9.956;2022-12-07T05:34:35;13.13;;;5.10;;
12597;SDS011;6364;53.590;9.956;2022-12-07T05:37:00;10.02;;;4.75;;
12597;SDS011;6364;53.590;9.956;2022-12-07T05:39:26;12.10;;;5.53;;
12597;SDS011;6364;53.590;9.956;2022-12-07T05:41:51;13.40;;;5.28;;
12597;SDS011;6364;53.590;9.956;2022-12-07T05:44:34;8.25;;;4.93;;
12597;SDS011;6364;53.590;9.956;2022-12-07T05:47:00;11.60;;;5.53;;
12597;SDS011;6364;53.590;9.956;2022-12-07T05:49:25;12.77;;;5.28;;
12597;SDS011;6364;53.590;9.956;2022-12-07T05:51:50;12.85;;;5.93;;
12597;SDS011;6364;53.590;9.956;2022-12-07T05:54:16;10.38;;;4.75;;
12597;SDS011;6364;53.590;9.956;2022-12-07T05:56:41;10.55;;;5.32;;
12597;SDS011;6364;53.590;9.956;2022-12-07T05:59:07;10.93;;;4.80;;
12597;SDS011;6364;53.590;9.956;2022-12-07T06:01:52;9.77;;;4.45;;
12597;SDS011;6364;53.590;9.956;2022-12-07T06:04:19;11.90;;;5.00;;
12597;SDS011;6364;53.590;9.956;2022-12-07T06:06:45;11.05;;;4.80;;
12597;SDS011;6364;53.590;9.956;2022-12-07T06:09:11;8.45;;;4.70;;
12597;SDS011;6364;53.590;9.956;2022-12-07T06:11:37;8.40;;;4.57;;
12597;SDS011;6364;53.590;9.956;2022-12-07T06:14:22;10.85;;;5.13;;
12597;SDS011;6364;53.590;9.956;2022-12-07T06:16:47;9.70;;;4.97;;
12597;SDS011;6364;53.590;9.956;2022-12-07T06:19:12;9.65;;;4.85;;
12597;SDS011;6364;53.590;9.956;2022-12-07T06:21:38;12.18;;;4.85;;
12597;SDS011;6364;53.590;9.956;2022-12-07T06:24:03;14.35;;;5.20;;
12597;SDS011;6364;53.590;9.956;2022-12-07T06:26:29;8.68;;;5.10;;
12597;SDS011;6364;53.590;9.956;2022-12-07T06:28:54;7.20;;;4.55;;
12597;SDS011;6364;53.590;9.956;2022-12-07T06:31:20;12.73;;;4.80;;
12597;SDS011;6364;53.590;9.956;2022-12-07T06:33:45;9.45;;;4.38;;
12597;SDS011;6364;53.590;9.956;2022-12-07T06:36:11;8.80;;;5.03;;
12597;SDS011;6364;53.590;9.956;2022-12-07T06:38:36;14.85;;;4.43;;
12597;SDS011;6364;53.590;9.956;2022-12-07T06:41:02;12.93;;;4.18;;
12597;SDS011;6364;53.590;9.956;2022-12-07T06:43:28;20.35;;;5.57;;
12597;SDS011;6364;53.590;9.956;2022-12-07T06:45:53;8.80;;;3.65;;
12597;SDS011;6364;53.590;9.956;2022-12-07T06:48:18;13.43;;;3.95;;
12597;SDS011;6364;53.590;9.956;2022-12-07T06:50:45;6.38;;;3.95;;
12597;SDS011;6364;53.590;9.956;2022-12-07T06:53:11;5.85;;;3.83;;
12597;SDS011;6364;53.590;9.956;2022-12-07T06:55:36;10.30;;;4.40;;
12597;SDS011;6364;53.590;9.956;2022-12-07T06:58:01;8.77;;;4.18;;
12597;SDS011;6364;53.590;9.956;2022-12-07T07:00:27;12.35;;;4.28;;
12597;SDS011;6364;53.590;9.956;2022-12-07T07:02:53;10.40;;;3.80;;
12597;SDS011;6364;53.590;9.956;2022-12-07T07:05:18;11.07;;;3.95;;
12597;SDS011;6364;53.590;9.956;2022-12-07T07:07:46;4.88;;;2.92;;
12597;SDS011;6364;53.590;9.956;2022-12-07T07:10:12;13.52;;;3.63;;
12597;SDS011;6364;53.590;9.956;2022-12-07T07:12:38;9.77;;;3.70;;
12597;SDS011;6364;53.590;9.956;2022-12-07T07:15:03;11.77;;;3.20;;
12597;SDS011;6364;53.590;9.956;2022-12-07T07:17:29;5.30;;;3.03;;
12597;SDS011;6364;53.590;9.956;2022-12-07T07:19:54;8.07;;;2.58;;
12597;SDS011;6364;53.590;9.956;2022-12-07T07:22:20;7.63;;;3.10;;
12597;SDS011;6364;53.590;9.956;2022-12-07T07:24:45;7.13;;;2.88;;
12597;SDS011;6364;53.590;9.956;2022-12-07T07:27:11;6.75;;;2.45;;
12597;SDS011;6364;53.590;9.956;2022-12-07T07:29:36;9.38;;;2.92;;
12597;SDS011;6364;53.590;9.956;2022-12-07T07:32:01;9.98;;;2.63;;
12597;SDS011;6364;53.590;9.956;2022-12-07T07:34:27;8.38;;;2.03;;
12597;SDS011;6364;53.590;9.956;2022-12-07T07:36:52;6.28;;;1.75;;
12597;SDS011;6364;53.590;9.956;2022-12-07T07:39:17;3.95;;;2.17;;
12597;SDS011;6364;53.590;9.956;2022-12-07T07:41:43;3.70;;;1.90;;
12597;SDS011;6364;53.590;9.956;2022-12-07T07:44:09;5.72;;;1.77;;
12597;SDS011;6364;53.590;9.956;2022-12-07T07:46:35;7.57;;;1.77;;
12597;SDS011;6364;53.590;9.956;2022-12-07T07:49:00;3.60;;;1.40;;
12597;SDS011;6364;53.590;9.956;2022-12-07T07:51:26;5.65;;;1.48;;
12597;SDS011;6364;53.590;9.956;2022-12-07T07:53:51;11.05;;;1.73;;
12597;SDS011;6364;53.590;9.956;2022-12-07T07:56:16;4.55;;;1.90;;
12597;SDS011;6364;53.590;9.956;2022-12-07T07:58:42;6.50;;;1.50;;
12597;SDS011;6364;53.590;9.956;2022-12-07T08:01:07;6.75;;;1.42;;
12597;SDS011;6364;53.590;9.956;2022-12-07T08:03:33;6.10;;;1.92;;
12597;SDS011;6364;53.590;9.956;2022-12-07T08:05:58;6.28;;;1.67;;
12597;SDS011;6364;53.590;9.956;2022-12-07T08:08:24;5.28;;;1.60;;
12597;SDS011;6364;53.590;9.956;2022-12-07T08:10:49;5.10;;;1.85;;
12597;SDS011;6364;53.590;9.956;2022-12-07T08:13:15;7.07;;;1.70;;
12597;SDS011;6364;53.590;9.956;2022-12-07T08:15:42;2.97;;;1.42;;
12597;SDS011;6364;53.590;9.956;2022-12-07T08:18:09;12.43;;;1.58;;
12597;SDS011;6364;53.590;9.956;2022-12-07T08:20:35;5.00;;;1.60;;
12597;SDS011;6364;53.590;9.956;2022-12-07T08:23:01;7.82;;;1.55;;
12597;SDS011;6364;53.590;9.956;2022-12-07T08:25:27;5.15;;;1.83;;
12597;SDS011;6364;53.590;9.956;2022-12-07T08:27:53;5.82;;;1.52;;
12597;SDS011;6364;53.590;9.956;2022-12-07T08:30:19;10.68;;;1.60;;
12597;SDS011;6364;53.590;9.956;2022-12-07T08:32:45;4.22;;;1.23;;
12597;SDS011;6364;53.590;9.956;2022-12-07T08:35:11;9.15;;;1.52;;
12597;SDS011;6364;53.590;9.956;2022-12-07T08:37:37;8.20;;;2.00;;
12597;SDS011;6364;53.590;9.956;2022-12-07T08:40:03;9.88;;;1.58;;
12597;SDS011;6364;53.590;9.956;2022-12-07T08:42:30;5.07;;;1.42;;
12597;SDS011;6364;53.590;9.956;2022-12-07T08:45:03;8.02;;;1.60;;
12597;SDS011;6364;53.590;9.956;2022-12-07T08:47:32;6.00;;;1.27;;
12597;SDS011;6364;53.590;9.956;2022-12-07T08:49:58;5.03;;;1.50;;
12597;SDS011;6364;53.590;9.956;2022-12-07T08:52:28;7.35;;;1.23;;
12597;SDS011;6364;53.590;9.956;2022-12-07T08:54:54;6.47;;;1.40;;
12597;SDS011;6364;53.590;9.956;2022-12-07T08:57:20;4.35;;;1.13;;
12597;SDS011;6364;53.590;9.956;2022-12-07T08:59:46;9.35;;;2.05;;
12597;SDS011;6364;53.590;9.956;2022-12-07T09:02:11;5.63;;;1.55;;
12597;SDS011;6364;53.590;9.956;2022-12-07T09:04:37;10.50;;;1.70;;
12597;SDS011;6364;53.590;9.956;2022-12-07T09:07:02;8.30;;;1.55;;
12597;SDS011;6364;53.590;9.956;2022-12-07T09:09:29;6.72;;;1.25;;
12597;SDS011;6364;53.590;9.956;2022-12-07T09:11:54;7.07;;;1.90;;
12597;SDS011;6364;53.590;9.956;2022-12-07T09:14:19;4.50;;;1.50;;
12597;SDS011;6364;53.590;9.956;2022-12-07T09:16:45;6.90;;;1.98;;
12597;SDS011;6364;53.590;9.956;2022-12-07T09:19:10;8.90;;;1.63;;
12597;SDS011;6364;53.590;9.956;2022-12-07T09:21:35;5.45;;;1.70;;
12597;SDS011;6364;53.590;9.956;2022-12-07T09:24:01;8.73;;;2.00;;
12597;SDS011;6364;53.590;9.956;2022-12-07T09:26:26;9.57;;;1.48;;
12597;SDS011;6364;53.590;9.956;2022-12-07T09:28:52;9.75;;;1.40;;
12597;SDS011;6364;53.590;9.956;2022-12-07T09:31:17;6.57;;;1.75;;
12597;SDS011;6364;53.590;9.956;2022-12-07T09:33:42;8.38;;;1.55;;
12597;SDS011;6364;53.590;9.956;2022-12-07T09:36:09;7.88;;;1.77;;
12597;SDS011;6364;53.590;9.956;2022-12-07T09:38:35;7.00;;;1.50;;
12597;SDS011;6364;53.590;9.956;2022-12-07T09:41:05;9.63;;;2.38;;
12597;SDS011;6364;53.590;9.956;2022-12-07T09:43:31;3.92;;;1.60;;
12597;SDS011;6364;53.590;9.956;2022-12-07T09:45:57;6.03;;;1.80;;
12597;SDS011;6364;53.590;9.956;2022-12-07T09:48:24;5.95;;;1.48;;
12597;SDS011;6364;53.590;9.956;2022-12-07T09:50:52;13.23;;;1.90;;
12597;SDS011;6364;53.590;9.956;2022-12-07T09:53:22;4.57;;;1.60;;
12597;SDS011;6364;53.590;9.956;2022-12-07T09:55:53;6.07;;;1.38;;
12597;SDS011;6364;53.590;9.956;2022-12-07T09:58:20;6.90;;;1.80;;
12597;SDS011;6364;53.590;9.956;2022-12-07T10:00:47;7.22;;;1.90;;
12597;SDS011;6364;53.590;9.956;2022-12-07T10:03:13;11.02;;;1.90;;
12597;SDS011;6364;53.590;9.956;2022-12-07T10:05:43;6.15;;;1.67;;
12597;SDS011;6364;53.590;9.956;2022-12-07T10:08:11;5.10;;;1.75;;
12597;SDS011;6364;53.590;9.956;2022-12-07T10:10:37;10.80;;;1.85;;
12597;SDS011;6364;53.590;9.956;2022-12-07T10:15:56;5.53;;;1.52;;
12597;SDS011;6364;53.590;9.956;2022-12-07T10:21:25;9.40;;;1.95;;
12597;SDS011;6364;53.590;9.956;2022-12-07T10:24:02;7.15;;;1.83;;
12597;SDS011;6364;53.590;9.956;2022-12-07T10:28:58;8.68;;;1.30;;
12597;SDS011;6364;53.590;9.956;2022-12-07T10:31:25;4.82;;;1.50;;
12597;SDS011;6364;53.590;9.956;2022-12-07T10:33:52;5.32;;;1.70;;
12597;SDS011;6364;53.590;9.956;2022-12-07T10:36:21;8.52;;;1.50;;
12597;SDS011;6364;53.590;9.956;2022-12-07T10:38:47;8.32;;;1.40;;
12597;SDS011;6364;53.590;9.956;2022-12-07T10:41:59;5.60;;;1.50;;
12597;SDS011;6364;53.590;9.956;2022-12-07T10:44:29;7.05;;;1.33;;
12597;SDS011;6364;53.590;9.956;2022-12-07T10:49:32;5.18;;;1.50;;
12597;SDS011;6364;53.590;9.956;2022-12-07T11:00:11;6.55;;;1.20;;
12597;SDS011;6364;53.590;9.956;2022-12-07T11:05:24;5.90;;;1.50;;
12597;SDS011;6364;53.590;9.956;2022-12-07T11:08:05;4.15;;;1.30;;
12597;SDS011;6364;53.590;9.956;2022-12-07T11:13:16;7.15;;;1.23;;
12597;SDS011;6364;53.590;9.956;2022-12-07T11:15:53;6.22;;;1.05;;
12597;SDS011;6364;53.590;9.956;2022-12-07T11:18:32;3.88;;;1.20;;
12597;SDS011;6364;53.590;9.956;2022-12-07T11:21:28;11.38;;;1.42;;
12597;SDS011;6364;53.590;9.956;2022-12-07T11:26:34;3.97;;;0.98;;
12597;SDS011;6364;53.590;9.956;2022-12-07T11:29:19;5.45;;;1.40;;
12597;SDS011;6364;53.590;9.956;2022-12-07T11:32:05;8.02;;;1.63;;
12597;SDS011;6364;53.590;9.956;2022-12-07T11:37:08;2.55;;;1.00;;
12597;SDS011;6364;53.590;9.956;2022-12-07T11:39:40;6.47;;;1.35;;
12597;SDS011;6364;53.590;9.956;2022-12-07T11:42:14;7.07;;;1.25;;
12597;SDS011;6364;53.590;9.956;2022-12-07T11:52:58;6.47;;;1.27;;
12597;SDS011;6364;53.590;9.956;2022-12-07T11:56:13;7.65;;;1.83;;
12597;SDS011;6364;53.590;9.956;2022-12-07T12:06:25;7.47;;;1.90;;
12597;SDS011;6364;53.590;9.956;2022-12-07T12:08:55;10.55;;;1.60;;
12597;SDS011;6364;53.590;9.956;2022-12-07T12:22:40;5.75;;;2.20;;
12597;SDS011;6364;53.590;9.956;2022-12-07T12:27:50;4.65;;;1.40;;
12597;SDS011;6364;53.590;9.956;2022-12-07T12:30:25;10.77;;;1.55;;
12597;SDS011;6364;53.590;9.956;2022-12-07T12:32:51;7.18;;;1.15;;
12597;SDS011;6364;53.590;9.956;2022-12-07T12:37:56;13.15;;;1.73;;
12597;SDS011;6364;53.590;9.956;2022-12-07T12:40:43;7.60;;;1.45;;
12597;SDS011;6364;53.590;9.956;2022-12-07T12:48:54;6.90;;;1.55;;
12597;SDS011;6364;53.590;9.956;2022-12-07T12:51:37;5.55;;;1.58;;
12597;SDS011;6364;53.590;9.956;2022-12-07T12:54:04;8.50;;;1.50;;
12597;SDS011;6364;53.590;9.956;2022-12-07T12:56:37;11.40;;;1.60;;
12597;SDS011;6364;53.590;9.956;2022-12-07T12:59:32;5.18;;;1.10;;
12597;SDS011;6364;53.590;9.956;2022-12-07T13:04:53;10.07;;;1.55;;
12597;SDS011;6364;53.590;9.956;2022-12-07T13:13:28;11.98;;;1.90;;
12597;SDS011;6364;53.590;9.956;2022-12-07T13:23:36;7.63;;;1.20;;
12597;SDS011;6364;53.590;9.956;2022-12-07T13:28:49;7.25;;;1.67;;
12597;SDS011;6364;53.590;9.956;2022-12-07T13:33:47;7.50;;;1.20;;
12597;SDS011;6364;53.590;9.956;2022-12-07T13:36:17;9.60;;;2.03;;
12597;SDS011;6364;53.590;9.956;2022-12-07T13:38:49;9.23;;;1.65;;
12597;SDS011;6364;53.590;9.956;2022-12-07T13:41:16;6.47;;;1.17;;
12597;SDS011;6364;53.590;9.956;2022-12-07T13:43:44;6.57;;;1.33;;
12597;SDS011;6364;53.590;9.956;2022-12-07T13:46:14;8.32;;;1.25;;
12597;SDS011;6364;53.590;9.956;2022-12-07T13:48:48;5.55;;;1.38;;
12597;SDS011;6364;53.590;9.956;2022-12-07T13:51:19;9.30;;;1.30;;
12597;SDS011;6364;53.590;9.956;2022-12-07T13:53:53;5.93;;;1.13;;
12597;SDS011;6364;53.590;9.956;2022-12-07T13:56:25;11.80;;;1.90;;
12597;SDS011;6364;53.590;9.956;2022-12-07T13:58:54;8.13;;;1.20;;
12597;SDS011;6364;53.590;9.956;2022-12-07T14:01:20;6.05;;;0.98;;
12597;SDS011;6364;53.590;9.956;2022-12-07T14:03:45;4.13;;;1.02;;
12597;SDS011;6364;53.590;9.956;2022-12-07T14:08:50;3.88;;;1.08;;
12597;SDS011;6364;53.590;9.956;2022-12-07T14:11:17;8.82;;;0.98;;
12597;SDS011;6364;53.590;9.956;2022-12-07T14:13:45;6.35;;;1.25;;
12597;SDS011;6364;53.590;9.956;2022-12-07T14:18:50;3.17;;;0.85;;
12597;SDS011;6364;53.590;9.956;2022-12-07T14:21:17;3.53;;;1.00;;
12597;SDS011;6364;53.590;9.956;2022-12-07T14:24:11;12.10;;;1.38;;
12597;SDS011;6364;53.590;9.956;2022-12-07T14:26:41;6.45;;;1.42;;
12597;SDS011;6364;53.590;9.956;2022-12-07T14:29:20;7.00;;;1.77;;
12597;SDS011;6364;53.590;9.956;2022-12-07T14:31:54;3.55;;;1.20;;
12597;SDS011;6364;53.590;9.956;2022-12-07T14:34:23;5.63;;;1.00;;
12597;SDS011;6364;53.590;9.956;2022-12-07T14:36:52;5.03;;;1.23;;
12597;SDS011;6364;53.590;9.956;2022-12-07T14:39:17;6.07;;;1.08;;
12597;SDS011;6364;53.590;9.956;2022-12-07T14:41:42;6.82;;;1.00;;
12597;SDS011;6364;53.590;9.956;2022-12-07T14:44:18;3.75;;;0.75;;
12597;SDS011;6364;53.590;9.956;2022-12-07T14:46:45;9.77;;;1.20;;
12597;SDS011;6364;53.590;9.956;2022-12-07T14:49:12;6.72;;;1.85;;
12597;SDS011;6364;53.590;9.956;2022-12-07T14:51:38;7.20;;;1.50;;
12597;SDS011;6364;53.590;9.956;2022-12-07T14:54:05;5.43;;;1.40;;
12597;SDS011;6364;53.590;9.956;2022-12-07T14:56:31;5.15;;;1.50;;
12597;SDS011;6364;53.590;9.956;2022-12-07T14:58:57;6.75;;;1.70;;
12597;SDS011;6364;53.590;9.956;2022-12-07T15:01:22;6.75;;;1.50;;
12597;SDS011;6364;53.590;9.956;2022-12-07T15:03:47;7.40;;;1.55;;
12597;SDS011;6364;53.590;9.956;2022-12-07T15:06:14;3.08;;;1.17;;
12597;SDS011;6364;53.590;9.956;2022-12-07T15:08:40;6.07;;;1.30;;
12597;SDS011;6364;53.590;9.956;2022-12-07T15:11:06;7.95;;;1.80;;
12597;SDS011;6364;53.590;9.956;2022-12-07T15:13:31;11.93;;;1.80;;
12597;SDS011;6364;53.590;9.956;2022-12-07T15:16:17;9.43;;;1.38;;
12597;SDS011;6364;53.590;9.956;2022-12-07T15:18:45;6.55;;;1.70;;
12597;SDS011;6364;53.590;9.956;2022-12-07T15:21:14;5.00;;;1.58;;
12597;SDS011;6364;53.590;9.956;2022-12-07T15:23:40;2.45;;;1.30;;
12597;SDS011;6364;53.590;9.956;2022-12-07T15:26:05;6.72;;;1.30;;
12597;SDS011;6364;53.590;9.956;2022-12-07T15:28:31;2.85;;;1.23;;
12597;SDS011;6364;53.590;9.956;2022-12-07T15:30:56;10.30;;;1.60;;
12597;SDS011;6364;53.590;9.956;2022-12-07T15:33:22;6.18;;;1.65;;
12597;SDS011;6364;53.590;9.956;2022-12-07T15:35:47;3.13;;;1.25;;
12597;SDS011;6364;53.590;9.956;2022-12-07T15:38:13;9.30;;;2.58;;
12597;SDS011;6364;53.590;9.956;2022-12-07T15:40:38;5.85;;;2.30;;
12597;SDS011;6364;53.590;9.956;2022-12-07T15:43:04;6.57;;;2.45;;
12597;SDS011;6364;53.590;9.956;2022-12-07T15:45:29;5.47;;;2.03;;
12597;SDS011;6364;53.590;9.956;2022-12-07T15:47:55;4.88;;;2.13;;
12597;SDS011;6364;53.590;9.956;2022-12-07T15:50:21;9.82;;;2.40;;
12597;SDS011;6364;53.590;9.956;2022-12-07T15:52:46;6.35;;;2.03;;
12597;SDS011;6364;53.590;9.956;2022-12-07T15:55:12;6.57;;;2.45;;
12597;SDS011;6364;53.590;9.956;2022-12-07T15:57:38;6.25;;;2.05;;
12597;SDS011;6364;53.590;9.956;2022-12-07T16:00:05;2.63;;;1.50;;
12597;SDS011;6364;53.590;9.956;2022-12-07T16:02:31;7.20;;;2.00;;
12597;SDS011;6364;53.590;9.956;2022-12-07T16:04:56;5.93;;;2.10;;
12597;SDS011;6364;53.590;9.956;2022-12-07T16:07:22;7.80;;;2.30;;
12597;SDS011;6364;53.590;9.956;2022-12-07T16:09:47;8.73;;;2.00;;
12597;SDS011;6364;53.590;9.956;2022-12-07T16:12:14;8.02;;;1.80;;
12597;SDS011;6364;53.590;9.956;2022-12-07T16:14:40;9.30;;;2.28;;
12597;SDS011;6364;53.590;9.956;2022-12-07T16:17:06;9.85;;;2.25;;
12597;SDS011;6364;53.590;9.956;2022-12-07T16:19:33;6.20;;;1.92;;
12597;SDS011;6364;53.590;9.956;2022-12-07T16:21:59;4.28;;;1.80;;
12597;SDS011;6364;53.590;9.956;2022-12-07T16:24:24;8.63;;;2.13;;
12597;SDS011;6364;53.590;9.956;2022-12-07T16:26:50;11.35;;;2.33;;
12597;SDS011;6364;53.590;9.956;2022-12-07T16:29:16;5.85;;;2.33;;
12597;SDS011;6364;53.590;9.956;2022-12-07T16:31:43;6.68;;;2.15;;
12597;SDS011;6364;53.590;9.956;2022-12-07T16:34:09;9.10;;;3.22;;
12597;SDS011;6364;53.590;9.956;2022-12-07T16:36:34;7.53;;;3.00;;
12597;SDS011;6364;53.590;9.956;2022-12-07T16:38:59;7.72;;;3.17;;
12597;SDS011;6364;53.590;9.956;2022-12-07T16:41:25;27.95;;;10.35;;
12597;SDS011;6364;53.590;9.956;2022-12-07T16:43:50;16.60;;;7.78;;
12597;SDS011;6364;53.590;9.956;2022-12-07T16:46:16;14.07;;;5.32;;
12597;SDS011;6364;53.590;9.956;2022-12-07T16:48:42;11.13;;;4.95;;
12597;SDS011;6364;53.590;9.956;2022-12-07T16:51:08;13.93;;;3.55;;
12597;SDS011;6364;53.590;9.956;2022-12-07T16:53:35;8.13;;;3.55;;
12597;SDS011;6364;53.590;9.956;2022-12-07T16:56:03;9.77;;;4.13;;
12597;SDS011;6364;53.590;9.956;2022-12-07T16:58:29;8.98;;;5.18;;
12597;SDS011;6364;53.590;9.956;2022-12-07T17:00:55;11.07;;;5.43;;
12597;SDS011;6364;53.590;9.956;2022-12-07T17:03:21;8.85;;;3.83;;
12597;SDS011;6364;53.590;9.956;2022-12-07T17:05:47;16.00;;;6.30;;
12597;SDS011;6364;53.590;9.956;2022-12-07T17:08:13;12.00;;;5.80;;